Time;durP1;ratioP1;P1;durP2;ratioP2;P2;SDS_P1;SDS_P2;PMS_P1;PMS_P2;Temp;Humidity;BMP_temperature;BMP_pressure;BME280_temperature;BME280_humidity;BME280_pressure;Samples;Min_cycle;Max_cycle;Signal;HPM_P1;HPM_P2
2023/01/15 00:01:37;;;;;;;4.72;3.20;;;;;;;;;;5005499;28;20528;-79
2023/01/15 00:04:04;;;;;;;6.03;3.25;;;;;;;;;;4987273;28;20053;-80
2023/01/15 00:06:31;;;;;;;6.53;3.45;;;;;;;;;;4988104;28;20093;-79
2023/01/15 00:08:57;;;;;;;3.58;2.40;;;;;;;;;;5001584;28;20399;-80
2023/01/15 00:11:24;;;;;;;8.32;3.08;;;;;;;;;;4999261;28;20065;-79
2023/01/15 00:13:51;;;;;;;2.28;2.03;;;;;;;;;;4990564;28;20019;-79
2023/01/15 00:16:22;;;;;;;4.70;2.53;;;;;;;;;;4990738;28;20053;-79
2023/01/15 00:18:52;;;;;;;4.13;2.20;;;;;;;;;;4987878;28;20037;-79
2023/01/15 00:21:19;;;;;;;8.52;3.20;;;;;;;;;;5008507;28;20022;-80
2023/01/15 00:29:16;;;;;;;4.78;2.53;;;;;;;;;;5012099;28;20044;-80
2023/01/15 00:31:43;;;;;;;4.53;2.13;;;;;;;;;;4991292;28;20113;-78
2023/01/15 00:34:09;;;;;;;4.07;2.72;;;;;;;;;;5002193;28;20053;-79
2023/01/15 00:36:36;;;;;;;3.67;2.90;;;;;;;;;;5010755;28;20022;-80
2023/01/15 00:39:03;;;;;;;4.78;2.90;;;;;;;;;;5005447;28;20025;-79
2023/01/15 00:41:29;;;;;;;4.47;2.80;;;;;;;;;;5009203;28;20387;-79
2023/01/15 00:43:56;;;;;;;6.45;2.92;;;;;;;;;;5001399;28;20061;-79
2023/01/15 00:46:22;;;;;;;4.78;2.85;;;;;;;;;;5003770;28;20026;-80
2023/01/15 00:48:48;;;;;;;4.53;2.97;;;;;;;;;;5007852;28;20022;-79
2023/01/15 00:51:14;;;;;;;2.58;2.38;;;;;;;;;;4996180;28;20018;-80
2023/01/15 00:53:40;;;;;;;6.50;2.55;;;;;;;;;;5006666;28;20030;-80
2023/01/15 00:56:07;;;;;;;6.88;2.88;;;;;;;;;;5011130;28;20160;-80
2023/01/15 00:58:33;;;;;;;4.03;2.53;;;;;;;;;;5009964;28;20083;-79
2023/01/15 01:01:02;;;;;;;4.55;2.20;;;;;;;;;;5011411;28;20081;-79
2023/01/15 01:03:28;;;;;;;5.72;2.88;;;;;;;;;;5007939;28;20029;-79
2023/01/15 01:05:59;;;;;;;4.78;2.60;;;;;;;;;;4993961;28;20018;-80
2023/01/15 01:08:25;;;;;;;4.50;2.63;;;;;;;;;;5007764;28;20025;-79
2023/01/15 01:11:00;;;;;;;3.97;2.72;;;;;;;;;;5009757;28;20041;-80
2023/01/15 01:13:26;;;;;;;3.42;2.72;;;;;;;;;;5004245;28;20060;-79
2023/01/15 01:15:52;;;;;;;3.45;2.20;;;;;;;;;;5008968;28;20056;-80
2023/01/15 01:18:18;;;;;;;2.55;2.10;;;;;;;;;;4988059;28;20037;-79
2023/01/15 01:20:44;;;;;;;4.90;2.38;;;;;;;;;;4991984;28;20920;-80
2023/01/15 01:23:10;;;;;;;6.65;3.08;;;;;;;;;;5009571;28;20079;-79
2023/01/15 01:25:36;;;;;;;4.32;2.45;;;;;;;;;;5009371;28;20026;-79
2023/01/15 01:28:03;;;;;;;5.90;2.60;;;;;;;;;;5007143;28;20032;-79
2023/01/15 01:30:29;;;;;;;4.47;2.40;;;;;;;;;;5002312;28;20092;-80
2023/01/15 01:32:55;;;;;;;5.20;2.85;;;;;;;;;;4999192;28;20034;-79
2023/01/15 01:35:21;;;;;;;5.38;2.15;;;;;;;;;;5005146;28;20052;-79
2023/01/15 01:37:50;;;;;;;3.05;2.00;;;;;;;;;;5001503;28;20058;-79
2023/01/15 01:40:17;;;;;;;2.42;1.90;;;;;;;;;;4996269;28;20018;-80
2023/01/15 01:42:44;;;;;;;2.47;2.20;;;;;;;;;;5000946;28;20101;-79
2023/01/15 01:45:24;;;;;;;3.05;1.95;;;;;;;;;;5004759;28;20162;-80
2023/01/15 01:47:50;;;;;;;4.55;1.77;;;;;;;;;;5009416;28;20030;-79
2023/01/15 01:50:17;;;;;;;2.33;1.85;;;;;;;;;;5003616;28;20767;-79
2023/01/15 01:52:44;;;;;;;2.42;1.83;;;;;;;;;;5001594;28;20030;-79
2023/01/15 01:55:14;;;;;;;4.30;2.05;;;;;;;;;;5010267;28;20021;-79
2023/01/15 01:57:40;;;;;;;2.67;2.00;;;;;;;;;;5005864;28;20018;-79
2023/01/15 02:00:07;;;;;;;1.80;1.70;;;;;;;;;;5006938;28;20017;-80
2023/01/15 02:02:33;;;;;;;3.45;1.83;;;;;;;;;;5005348;28;20022;-80
2023/01/15 02:04:59;;;;;;;5.25;2.20;;;;;;;;;;5004199;28;20027;-80
2023/01/15 02:07:26;;;;;;;1.95;1.70;;;;;;;;;;4986045;28;20035;-80
2023/01/15 02:09:52;;;;;;;3.05;1.92;;;;;;;;;;5000294;28;20088;-80
2023/01/15 02:12:28;;;;;;;2.90;1.80;;;;;;;;;;5005852;28;20073;-80
2023/01/15 02:14:59;;;;;;;2.28;1.77;;;;;;;;;;4998048;28;20499;-79
2023/01/15 02:17:32;;;;;;;3.22;2.33;;;;;;;;;;5003331;28;20036;-80
2023/01/15 02:20:01;;;;;;;2.15;1.77;;;;;;;;;;4998715;28;20040;-80
2023/01/15 02:22:43;;;;;;;2.20;1.75;;;;;;;;;;4996710;28;20081;-78
2023/01/15 02:25:14;;;;;;;2.22;1.60;;;;;;;;;;4996578;28;20486;-79
2023/01/15 02:27:43;;;;;;;6.45;2.13;;;;;;;;;;4996596;28;20034;-79
2023/01/15 02:30:12;;;;;;;4.63;1.80;;;;;;;;;;5000835;28;20115;-80
2023/01/15 02:32:43;;;;;;;2.20;1.98;;;;;;;;;;5006771;28;20478;-79
2023/01/15 02:35:14;;;;;;;3.60;2.08;;;;;;;;;;5004815;28;20058;-79
2023/01/15 02:37:42;;;;;;;2.45;1.95;;;;;;;;;;4991268;28;20069;-80
2023/01/15 02:40:10;;;;;;;6.68;2.35;;;;;;;;;;5012809;28;20459;-80
2023/01/15 02:42:38;;;;;;;2.90;1.83;;;;;;;;;;5008688;28;20037;-78
2023/01/15 02:45:05;;;;;;;5.80;2.15;;;;;;;;;;5005960;28;20041;-80
2023/01/15 02:47:34;;;;;;;3.40;1.70;;;;;;;;;;4997234;28;20089;-79
2023/01/15 02:50:03;;;;;;;2.67;1.98;;;;;;;;;;5015350;28;20034;-80
2023/01/15 02:52:33;;;;;;;8.05;3.97;;;;;;;;;;5021209;28;20475;-79
2023/01/15 02:55:02;;;;;;;5.75;2.30;;;;;;;;;;5019529;28;20058;-79
2023/01/15 02:57:30;;;;;;;4.65;2.40;;;;;;;;;;5009188;28;20029;-80
2023/01/15 02:59:58;;;;;;;3.78;1.92;;;;;;;;;;5016704;28;20384;-80
2023/01/15 03:02:26;;;;;;;8.27;2.22;;;;;;;;;;5010185;28;20018;-79
2023/01/15 03:04:56;;;;;;;4.63;2.17;;;;;;;;;;5013407;28;20018;-80
2023/01/15 03:07:27;;;;;;;4.28;2.17;;;;;;;;;;5006339;28;20033;-79
2023/01/15 03:09:54;;;;;;;2.83;2.10;;;;;;;;;;5008379;28;20022;-80
2023/01/15 03:12:29;;;;;;;6.30;2.33;;;;;;;;;;5002387;28;20446;-80
2023/01/15 03:17:59;;;;;;;5.40;2.33;;;;;;;;;;5005252;28;20576;-79
2023/01/15 03:20:26;;;;;;;8.52;2.65;;;;;;;;;;5007666;28;20150;-80
2023/01/15 03:22:56;;;;;;;3.78;2.33;;;;;;;;;;5006727;28;20030;-80
2023/01/15 03:25:26;;;;;;;4.90;2.53;;;;;;;;;;4993256;28;20026;-80
2023/01/15 03:27:54;;;;;;;3.67;2.03;;;;;;;;;;5012510;28;20084;-79
2023/01/15 03:30:21;;;;;;;4.25;1.95;;;;;;;;;;5007907;28;20057;-79
2023/01/15 03:32:47;;;;;;;5.78;2.47;;;;;;;;;;5012799;28;20553;-80
2023/01/15 03:35:32;;;;;;;10.05;2.40;;;;;;;;;;5013442;28;20022;-79
2023/01/15 03:37:58;;;;;;;5.43;2.10;;;;;;;;;;4994625;28;20084;-80
2023/01/15 03:40:24;;;;;;;4.32;1.98;;;;;;;;;;5008304;28;20441;-80
2023/01/15 03:43:41;;;;;;;10.82;3.20;;;;;;;;;;4994934;28;20104;-79
2023/01/15 03:45:44;;;;;;;6.55;2.70;;;;;;;;;;4989800;28;20379;-79
2023/01/15 03:48:29;;;;;;;4.15;1.80;;;;;;;;;;5011284;28;20125;-80
2023/01/15 03:51:18;;;;;;;1.67;1.57;;;;;;;;;;5011931;28;20034;-79
2023/01/15 03:53:46;;;;;;;4.20;2.53;;;;;;;;;;5008787;28;20030;-80
2023/01/15 03:56:18;;;;;;;4.82;1.92;;;;;;;;;;5011329;28;20030;-79
2023/01/15 03:58:50;;;;;;;8.07;2.10;;;;;;;;;;5012961;28;20120;-80
2023/01/15 04:01:19;;;;;;;4.50;1.80;;;;;;;;;;5008816;28;20077;-80
2023/01/15 04:03:47;;;;;;;6.63;2.17;;;;;;;;;;5010617;28;20033;-80
2023/01/15 04:06:14;;;;;;;8.70;2.28;;;;;;;;;;5002334;28;20471;-80
2023/01/15 04:08:41;;;;;;;5.78;2.10;;;;;;;;;;5013227;28;20021;-79
2023/01/15 04:11:07;;;;;;;3.65;1.80;;;;;;;;;;5011640;28;20054;-79
2023/01/15 04:13:34;;;;;;;4.60;1.77;;;;;;;;;;4999856;28;20040;-78
2023/01/15 04:16:00;;;;;;;4.30;3.05;;;;;;;;;;4990302;28;20015;-80
2023/01/15 04:18:26;;;;;;;5.28;1.88;;;;;;;;;;4995125;28;20121;-79
2023/01/15 04:20:55;;;;;;;3.42;1.92;;;;;;;;;;5008845;28;20068;-79
2023/01/15 04:23:22;;;;;;;3.00;1.98;;;;;;;;;;5007904;28;20018;-80
2023/01/15 04:25:48;;;;;;;3.85;1.98;;;;;;;;;;5009558;28;20426;-79
2023/01/15 04:28:14;;;;;;;7.60;2.13;;;;;;;;;;5005660;28;20072;-78
2023/01/15 04:30:42;;;;;;;4.20;1.67;;;;;;;;;;5011334;28;20029;-80
2023/01/15 04:33:08;;;;;;;7.35;1.90;;;;;;;;;;4999239;28;20033;-80
2023/01/15 04:35:34;;;;;;;6.35;2.15;;;;;;;;;;5011722;28;20125;-80
2023/01/15 04:38:01;;;;;;;3.08;1.70;;;;;;;;;;5008491;28;20029;-80
2023/01/15 04:45:58;;;;;;;4.97;2.17;;;;;;;;;;5010762;28;20037;-80
2023/01/15 04:48:24;;;;;;;3.22;1.90;;;;;;;;;;4999316;28;20426;-80
2023/01/15 04:50:50;;;;;;;3.50;2.00;;;;;;;;;;5011382;28;20084;-80
2023/01/15 04:53:16;;;;;;;5.90;3.05;;;;;;;;;;4996933;28;20056;-79
2023/01/15 04:55:42;;;;;;;6.07;2.17;;;;;;;;;;5005464;28;20022;-80
2023/01/15 04:58:09;;;;;;;9.93;2.13;;;;;;;;;;5008832;28;20390;-79
2023/01/15 05:00:35;;;;;;;6.25;2.45;;;;;;;;;;5004623;28;20455;-80
2023/01/15 05:03:01;;;;;;;5.45;3.05;;;;;;;;;;5009361;28;20030;-79
2023/01/15 05:05:27;;;;;;;5.35;2.35;;;;;;;;;;4999447;28;20030;-80
2023/01/15 05:07:53;;;;;;;7.85;2.00;;;;;;;;;;4994064;28;20102;-80
2023/01/15 05:10:19;;;;;;;8.73;2.78;;;;;;;;;;4989321;28;20463;-80
2023/01/15 05:12:45;;;;;;;5.45;2.05;;;;;;;;;;5004731;28;20053;-80
2023/01/15 05:15:11;;;;;;;3.55;1.90;;;;;;;;;;5005919;28;20034;-80
2023/01/15 05:17:37;;;;;;;5.47;2.05;;;;;;;;;;5001600;28;20032;-80
2023/01/15 05:20:05;;;;;;;6.03;1.70;;;;;;;;;;5008271;28;20046;-80
2023/01/15 05:22:31;;;;;;;2.67;1.80;;;;;;;;;;4993630;28;20037;-80
2023/01/15 05:24:57;;;;;;;5.05;1.80;;;;;;;;;;5001891;28;20018;-79
2023/01/15 05:27:23;;;;;;;3.65;1.67;;;;;;;;;;5005911;28;20060;-80
2023/01/15 05:29:49;;;;;;;6.10;2.28;;;;;;;;;;5002392;28;20025;-80
2023/01/15 05:32:15;;;;;;;2.92;1.80;;;;;;;;;;5007448;28;20121;-79
2023/01/15 05:34:41;;;;;;;5.22;2.30;;;;;;;;;;5006992;28;20097;-80
2023/01/15 05:37:07;;;;;;;5.15;2.17;;;;;;;;;;5005143;28;20030;-80
2023/01/15 05:39:34;;;;;;;3.45;2.58;;;;;;;;;;5005791;28;20511;-80
2023/01/15 05:42:01;;;;;;;5.70;2.22;;;;;;;;;;5013204;28;20120;-80
2023/01/15 05:44:28;;;;;;;5.07;2.97;;;;;;;;;;5007511;28;20069;-80
2023/01/15 05:47:01;;;;;;;6.13;2.83;;;;;;;;;;4992504;28;20482;-80
2023/01/15 05:49:28;;;;;;;4.90;2.03;;;;;;;;;;4990048;28;20376;-80
2023/01/15 05:51:54;;;;;;;5.13;1.83;;;;;;;;;;5001871;28;20101;-79
2023/01/15 05:54:25;;;;;;;5.00;2.28;;;;;;;;;;5003277;28;20738;-79
2023/01/15 05:56:51;;;;;;;3.03;2.08;;;;;;;;;;4989372;28;20029;-79
2023/01/15 05:59:18;;;;;;;6.20;2.33;;;;;;;;;;5000238;28;20077;-80
2023/01/15 06:01:44;;;;;;;4.63;2.25;;;;;;;;;;4999311;28;20030;-79
2023/01/15 06:04:13;;;;;;;4.15;2.38;;;;;;;;;;4982498;28;20026;-79
2023/01/15 06:06:39;;;;;;;6.47;2.10;;;;;;;;;;4999341;28;20045;-80
2023/01/15 06:09:05;;;;;;;5.70;2.60;;;;;;;;;;5010321;28;20030;-79
2023/01/15 06:11:31;;;;;;;5.88;2.53;;;;;;;;;;5006457;28;20053;-80
2023/01/15 06:13:58;;;;;;;6.93;3.20;;;;;;;;;;5007550;28;20033;-79
2023/01/15 06:16:24;;;;;;;8.45;3.38;;;;;;;;;;5014639;28;20030;-80
2023/01/15 06:18:50;;;;;;;3.17;1.80;;;;;;;;;;5014108;28;20022;-79
2023/01/15 06:21:16;;;;;;;4.28;1.80;;;;;;;;;;5004655;28;20030;-79
2023/01/15 06:23:42;;;;;;;10.52;2.65;;;;;;;;;;5004833;28;20441;-79
2023/01/15 06:26:11;;;;;;;8.68;3.30;;;;;;;;;;4985735;28;20022;-79
2023/01/15 06:28:37;;;;;;;6.10;2.60;;;;;;;;;;5007860;28;20403;-79
2023/01/15 06:31:07;;;;;;;5.70;2.17;;;;;;;;;;5001974;28;20036;-79
2023/01/15 06:33:33;;;;;;;7.22;2.22;;;;;;;;;;5001497;28;20030;-79
2023/01/15 06:36:07;;;;;;;7.97;2.58;;;;;;;;;;5003233;28;20030;-79
2023/01/15 06:38:33;;;;;;;8.52;2.65;;;;;;;;;;5003419;28;20139;-80
2023/01/15 06:40:59;;;;;;;8.20;2.40;;;;;;;;;;5008937;28;20041;-79
2023/01/15 06:48:55;;;;;;;5.50;2.00;;;;;;;;;;5008060;28;20453;-79
2023/01/15 06:51:21;;;;;;;11.45;2.85;;;;;;;;;;5001848;28;20117;-78
2023/01/15 06:53:47;;;;;;;9.68;2.20;;;;;;;;;;5002455;28;20084;-78
2023/01/15 06:56:14;;;;;;;6.38;2.13;;;;;;;;;;4997049;28;20026;-78
2023/01/15 06:58:41;;;;;;;9.18;3.00;;;;;;;;;;5001937;28;20499;-77
2023/01/15 07:01:09;;;;;;;6.95;2.17;;;;;;;;;;5000651;28;20076;-80
2023/01/15 07:03:35;;;;;;;7.70;2.28;;;;;;;;;;4983820;28;20030;-79
2023/01/15 07:06:05;;;;;;;6.43;2.28;;;;;;;;;;5000130;28;20062;-78
2023/01/15 07:08:31;;;;;;;8.75;2.85;;;;;;;;;;4984784;28;20026;-79
2023/01/15 07:11:02;;;;;;;5.03;2.40;;;;;;;;;;4981064;28;20054;-80
2023/01/15 07:13:28;;;;;;;3.95;1.90;;;;;;;;;;4986177;28;20030;-79
2023/01/15 07:15:54;;;;;;;9.75;3.15;;;;;;;;;;4996400;28;20038;-78
2023/01/15 07:18:20;;;;;;;9.85;3.13;;;;;;;;;;4976380;28;20034;-79
2023/01/15 07:20:46;;;;;;;5.53;2.40;;;;;;;;;;4979580;28;20035;-78
2023/01/15 07:23:12;;;;;;;6.43;2.20;;;;;;;;;;4983516;28;20022;-78
2023/01/15 07:25:38;;;;;;;6.03;2.03;;;;;;;;;;4998078;28;20061;-78
2023/01/15 07:28:04;;;;;;;15.00;4.70;;;;;;;;;;4983628;28;20023;-78
2023/01/15 07:30:30;;;;;;;6.80;2.67;;;;;;;;;;4977076;28;20027;-78
2023/01/15 07:32:56;;;;;;;9.10;3.80;;;;;;;;;;4981594;28;20122;-78
2023/01/15 07:35:23;;;;;;;6.47;2.38;;;;;;;;;;5004685;28;20022;-78
2023/01/15 07:37:52;;;;;;;8.68;2.83;;;;;;;;;;5003225;28;20033;-77
2023/01/15 07:40:18;;;;;;;6.55;2.33;;;;;;;;;;4988427;28;20031;-78
2023/01/15 07:50:58;;;;;;;11.90;2.92;;;;;;;;;;4984389;28;20084;-78
2023/01/15 07:53:24;;;;;;;11.88;2.67;;;;;;;;;;4980348;28;20062;-78
2023/01/15 07:55:50;;;;;;;5.15;2.63;;;;;;;;;;5000025;28;20062;-77
2023/01/15 07:58:16;;;;;;;11.73;2.63;;;;;;;;;;4992747;28;20030;-77
2023/01/15 08:00:42;;;;;;;8.32;2.55;;;;;;;;;;4984340;28;20438;-78
2023/01/15 08:03:08;;;;;;;7.47;2.72;;;;;;;;;;4998099;28;20125;-80
2023/01/15 08:05:34;;;;;;;9.10;2.97;;;;;;;;;;5010066;28;20026;-79
2023/01/15 08:08:01;;;;;;;7.05;2.53;;;;;;;;;;5002857;28;20484;-78
2023/01/15 08:10:27;;;;;;;14.32;3.42;;;;;;;;;;5002407;28;20113;-77
2023/01/15 08:15:38;;;;;;;9.48;2.17;;;;;;;;;;5005489;28;20121;-77
2023/01/15 08:18:05;;;;;;;10.57;3.53;;;;;;;;;;4987358;28;20061;-77
2023/01/15 08:20:34;;;;;;;7.72;2.35;;;;;;;;;;5005921;28;20129;-77
2023/01/15 08:23:00;;;;;;;6.68;2.50;;;;;;;;;;4986274;28;20042;-77
2023/01/15 08:25:26;;;;;;;10.45;3.10;;;;;;;;;;4988928;28;20029;-77
2023/01/15 08:27:53;;;;;;;19.83;5.25;;;;;;;;;;4985222;28;20068;-78
2023/01/15 08:30:21;;;;;;;14.52;3.05;;;;;;;;;;4986478;28;20042;-77
2023/01/15 08:32:47;;;;;;;8.82;2.30;;;;;;;;;;5003295;28;20033;-79
2023/01/15 08:35:13;;;;;;;7.28;2.65;;;;;;;;;;5007689;28;20038;-78
2023/01/15 08:37:40;;;;;;;7.05;3.47;;;;;;;;;;4982266;28;20022;-77
2023/01/15 08:40:06;;;;;;;11.85;3.42;;;;;;;;;;5006148;28;20066;-77
2023/01/15 08:42:33;;;;;;;11.55;3.78;;;;;;;;;;5004697;28;20580;-78
2023/01/15 08:44:59;;;;;;;5.28;2.45;;;;;;;;;;5000101;28;20037;-77
2023/01/15 08:47:25;;;;;;;8.02;2.75;;;;;;;;;;5003449;28;20038;-76
2023/01/15 08:49:51;;;;;;;5.63;2.40;;;;;;;;;;5005078;28;20502;-78
2023/01/15 08:52:17;;;;;;;9.68;3.03;;;;;;;;;;5001342;28;20041;-78
2023/01/15 08:54:44;;;;;;;10.75;2.65;;;;;;;;;;5004449;28;20041;-78
2023/01/15 08:57:11;;;;;;;11.02;2.80;;;;;;;;;;5005099;28;20018;-77
2023/01/15 08:59:37;;;;;;;11.27;3.75;;;;;;;;;;5003344;28;20135;-77
2023/01/15 09:02:03;;;;;;;4.40;2.40;;;;;;;;;;5004546;28;20031;-77
2023/01/15 09:04:29;;;;;;;11.20;3.15;;;;;;;;;;5000036;28;20029;-78
2023/01/15 09:06:56;;;;;;;5.90;2.00;;;;;;;;;;4997785;28;20030;-78
2023/01/15 09:09:22;;;;;;;4.90;2.17;;;;;;;;;;5012335;28;20043;-78
2023/01/15 09:11:48;;;;;;;6.47;2.30;;;;;;;;;;5012722;28;20056;-78
2023/01/15 09:14:15;;;;;;;8.82;2.58;;;;;;;;;;4987799;28;20116;-79
2023/01/15 09:16:41;;;;;;;6.65;2.20;;;;;;;;;;4992446;28;20064;-78
2023/01/15 09:19:07;;;;;;;7.60;2.60;;;;;;;;;;5000694;28;20501;-80
2023/01/15 09:21:33;;;;;;;14.20;2.75;;;;;;;;;;5002017;28;20033;-79
2023/01/15 09:23:59;;;;;;;6.72;2.33;;;;;;;;;;5009628;28;20075;-78
2023/01/15 09:26:33;;;;;;;8.60;2.45;;;;;;;;;;4988809;28;20049;-78
2023/01/15 09:29:00;;;;;;;8.13;2.65;;;;;;;;;;5015824;28;20022;-77
2023/01/15 09:31:26;;;;;;;3.97;1.90;;;;;;;;;;5003733;28;20140;-79
2023/01/15 09:33:53;;;;;;;4.47;2.10;;;;;;;;;;5017290;28;20438;-77
2023/01/15 09:36:28;;;;;;;9.63;2.30;;;;;;;;;;5000476;28;20117;-78
2023/01/15 09:38:55;;;;;;;8.20;2.60;;;;;;;;;;5002295;28;20021;-78
2023/01/15 09:44:07;;;;;;;;;;;;;;;;;;5011579;28;20087;-78
2023/01/15 09:46:42;;;;;;;5.20;2.35;;;;;;;;;;4997012;28;20362;-78
2023/01/15 09:49:31;;;;;;;6.80;2.47;;;;;;;;;;4997695;28;20040;-78
2023/01/15 09:52:07;;;;;;;13.00;2.85;;;;;;;;;;4990151;28;20040;-77
2023/01/15 09:54:48;;;;;;;10.65;3.05;;;;;;;;;;4995106;28;20064;-78
2023/01/15 09:57:15;;;;;;;17.95;2.85;;;;;;;;;;5004981;28;20056;-77
2023/01/15 09:59:43;;;;;;;3.15;2.03;;;;;;;;;;5010260;28;20033;-76
2023/01/15 10:02:22;;;;;;;3.75;2.10;;;;;;;;;;4998768;28;20045;-79
2023/01/15 10:04:50;;;;;;;4.72;2.25;;;;;;;;;;4998648;28;20735;-78
2023/01/15 10:07:42;;;;;;;5.40;2.40;;;;;;;;;;5000318;28;20029;-77
2023/01/15 10:10:14;;;;;;;9.27;2.65;;;;;;;;;;4993721;28;20692;-77
2023/01/15 10:12:43;;;;;;;14.25;6.60;;;;;;;;;;5014954;28;20052;-76
2023/01/15 10:15:12;;;;;;;8.00;2.83;;;;;;;;;;4995198;28;20026;-76
2023/01/15 10:17:48;;;;;;;9.93;4.47;;;;;;;;;;5002763;28;20033;-77
2023/01/15 10:20:23;;;;;;;5.38;2.97;;;;;;;;;;4997457;28;20030;-77
2023/01/15 10:22:52;;;;;;;6.47;3.10;;;;;;;;;;5013922;28;20032;-77
2023/01/15 10:25:23;;;;;;;6.43;3.20;;;;;;;;;;5012349;28;20029;-76
2023/01/15 10:27:51;;;;;;;3.60;2.80;;;;;;;;;;4993334;28;20054;-77
2023/01/15 10:30:36;;;;;;;6.35;3.53;;;;;;;;;;5007054;28;20029;-77
2023/01/15 10:33:11;;;;;;;4.43;2.80;;;;;;;;;;5001353;28;20025;-77
2023/01/15 10:35:45;;;;;;;4.25;2.53;;;;;;;;;;5018317;28;20075;-77
2023/01/15 10:38:14;;;;;;;6.25;3.53;;;;;;;;;;5013985;28;20030;-77
2023/01/15 10:40:47;;;;;;;10.85;3.17;;;;;;;;;;5010477;28;20482;-77
2023/01/15 10:43:32;;;;;;;6.90;2.92;;;;;;;;;;5013943;28;20019;-77
2023/01/15 10:46:00;;;;;;;7.03;2.72;;;;;;;;;;5013990;28;20030;-76
2023/01/15 10:48:26;;;;;;;8.30;2.92;;;;;;;;;;5010569;28;20034;-76
2023/01/15 10:50:53;;;;;;;5.47;3.25;;;;;;;;;;5004221;28;20095;-76
2023/01/15 10:53:40;;;;;;;6.03;3.40;;;;;;;;;;5010759;28;20030;-76
2023/01/15 10:56:11;;;;;;;8.02;3.67;;;;;;;;;;5009892;28;20096;-77
2023/01/15 10:59:01;;;;;;;7.57;3.45;;;;;;;;;;5014146;28;20064;-77
2023/01/15 11:01:28;;;;;;;5.75;2.92;;;;;;;;;;4964431;28;20118;-76
2023/01/15 11:03:54;;;;;;;5.43;2.42;;;;;;;;;;4995850;28;20024;-76
2023/01/15 11:06:23;;;;;;;7.68;2.83;;;;;;;;;;5009140;28;20026;-76
2023/01/15 11:08:57;;;;;;;7.97;2.92;;;;;;;;;;4999072;28;20485;-77
2023/01/15 11:19:44;;;;;;;16.25;5.57;;;;;;;;;;5019832;28;20510;-78
2023/01/15 11:22:15;;;;;;;10.38;2.55;;;;;;;;;;4995876;28;20030;-76
2023/01/15 11:24:49;;;;;;;6.00;4.03;;;;;;;;;;5015035;28;20653;-76
2023/01/15 11:27:22;;;;;;;10.98;3.72;;;;;;;;;;5014029;28;20064;-77
2023/01/15 11:29:55;;;;;;;5.40;3.30;;;;;;;;;;5018646;28;20525;-77
2023/01/15 11:32:24;;;;;;;5.38;3.38;;;;;;;;;;5013054;28;20080;-77
2023/01/15 11:34:54;;;;;;;9.10;3.22;;;;;;;;;;5017614;28;20033;-78
2023/01/15 11:37:20;;;;;;;6.95;2.53;;;;;;;;;;4998601;28;20049;-76
2023/01/15 11:40:07;;;;;;;6.35;3.22;;;;;;;;;;5018245;28;20050;-77
2023/01/15 11:51:06;;;;;;;9.48;2.67;;;;;;;;;;5020984;28;20096;-75
2023/01/15 11:53:34;;;;;;;4.70;2.58;;;;;;;;;;5016522;28;20029;-75
2023/01/15 11:56:01;;;;;;;8.38;2.42;;;;;;;;;;5012181;28;20384;-76
2023/01/15 11:58:28;;;;;;;5.22;2.58;;;;;;;;;;5015844;28;20722;-76
2023/01/15 12:00:57;;;;;;;7.78;3.53;;;;;;;;;;5010785;28;20446;-76
2023/01/15 12:03:25;;;;;;;8.15;3.65;;;;;;;;;;5019639;28;20402;-76
2023/01/15 12:05:59;;;;;;;4.68;2.80;;;;;;;;;;5014394;28;20022;-77
2023/01/15 12:08:44;;;;;;;6.70;3.40;;;;;;;;;;5015457;28;20529;-75
2023/01/15 12:11:19;;;;;;;11.13;3.33;;;;;;;;;;5016095;28;20042;-76
2023/01/15 12:13:51;;;;;;;5.07;3.33;;;;;;;;;;5012195;28;20149;-74
2023/01/15 12:16:36;;;;;;;6.53;3.13;;;;;;;;;;5015816;28;20141;-75
2023/01/15 12:19:17;;;;;;;5.63;3.00;;;;;;;;;;5014067;28;20449;-75
2023/01/15 12:22:02;;;;;;;7.03;3.22;;;;;;;;;;5011908;28;20480;-75
2023/01/15 12:24:33;;;;;;;11.43;2.70;;;;;;;;;;4998908;28;20026;-76
2023/01/15 12:27:05;;;;;;;5.55;3.90;;;;;;;;;;5000269;28;20080;-76
2023/01/15 12:29:49;;;;;;;7.90;2.92;;;;;;;;;;5010418;28;20639;-76
2023/01/15 12:32:20;;;;;;;8.07;3.95;;;;;;;;;;5014194;28;20947;-76
2023/01/15 12:34:53;;;;;;;7.40;2.80;;;;;;;;;;4995028;28;20466;-77
2023/01/15 12:37:35;;;;;;;7.25;4.03;;;;;;;;;;5015418;28;20036;-77
2023/01/15 12:40:13;;;;;;;8.57;4.07;;;;;;;;;;4996301;28;20439;-75
2023/01/15 12:45:28;;;;;;;13.65;6.15;;;;;;;;;;5016675;28;20106;-76
2023/01/15 12:47:54;;;;;;;10.40;4.85;;;;;;;;;;5019571;28;20062;-76
2023/01/15 12:50:35;;;;;;;10.45;4.78;;;;;;;;;;5002221;28;20033;-76
2023/01/15 12:53:15;;;;;;;6.20;3.55;;;;;;;;;;4995348;28;20044;-76
2023/01/15 12:55:48;;;;;;;4.82;3.00;;;;;;;;;;5018090;28;20034;-80
2023/01/15 12:58:26;;;;;;;6.88;4.05;;;;;;;;;;5015709;28;20025;-77
2023/01/15 13:01:02;;;;;;;5.35;3.00;;;;;;;;;;5015826;28;20033;-77
2023/01/15 13:03:32;;;;;;;9.70;7.35;;;;;;;;;;5017382;28;20025;-76
2023/01/15 13:06:01;;;;;;;45.60;21.98;;;;;;;;;;5010650;28;20495;-76
2023/01/15 13:08:27;;;;;;;7.70;4.65;;;;;;;;;;5015450;28;20041;-76
2023/01/15 13:10:53;;;;;;;6.20;4.07;;;;;;;;;;4996181;28;20033;-77
2023/01/15 13:13:29;;;;;;;6.05;3.50;;;;;;;;;;5014461;28;20049;-78
2023/01/15 13:16:14;;;;;;;6.03;4.13;;;;;;;;;;5017476;28;20026;-77
2023/01/15 13:18:40;;;;;;;7.30;5.13;;;;;;;;;;5017902;28;20034;-78
2023/01/15 13:21:14;;;;;;;9.98;5.18;;;;;;;;;;4996938;28;20040;-82
2023/01/15 13:23:46;;;;;;;13.80;8.65;;;;;;;;;;5007396;28;20243;-79
2023/01/15 13:26:22;;;;;;;9.05;5.25;;;;;;;;;;5013451;28;20359;-76
2023/01/15 13:28:54;;;;;;;10.18;5.65;;;;;;;;;;5015037;28;20030;-76
2023/01/15 13:31:36;;;;;;;7.90;4.10;;;;;;;;;;5015983;28;20022;-78
2023/01/15 13:34:06;;;;;;;12.88;5.07;;;;;;;;;;5001222;28;20945;-77
2023/01/15 13:36:36;;;;;;;34.88;10.52;;;;;;;;;;5013451;28;20030;-76
2023/01/15 13:39:05;;;;;;;7.38;3.50;;;;;;;;;;5014333;28;20053;-77
2023/01/15 13:44:24;;;;;;;5.20;2.85;;;;;;;;;;5014056;28;20045;-76
2023/01/15 13:47:01;;;;;;;3.47;2.83;;;;;;;;;;5012955;28;20353;-77
2023/01/15 13:49:31;;;;;;;18.60;6.15;;;;;;;;;;5015901;28;20408;-76
2023/01/15 13:52:02;;;;;;;5.32;3.35;;;;;;;;;;4998842;28;20040;-76
2023/01/15 13:54:30;;;;;;;18.92;5.97;;;;;;;;;;5015308;28;20030;-76
2023/01/15 13:57:10;;;;;;;16.60;8.63;;;;;;;;;;4994230;28;20697;-77
2023/01/15 13:59:42;;;;;;;9.25;5.25;;;;;;;;;;5000448;28;20509;-76
2023/01/15 14:02:26;;;;;;;9.70;4.90;;;;;;;;;;5013356;28;20121;-77
2023/01/15 14:04:53;;;;;;;9.93;6.97;;;;;;;;;;5012858;28;20036;-76
2023/01/15 14:07:30;;;;;;;6.60;5.28;;;;;;;;;;5014250;28;20026;-77
2023/01/15 14:10:07;;;;;;;8.73;7.07;;;;;;;;;;4999073;28;20029;-77
2023/01/15 14:12:45;;;;;;;13.50;11.48;;;;;;;;;;5010416;28;20052;-77
2023/01/15 14:15:24;;;;;;;7.72;5.82;;;;;;;;;;5013162;28;20038;-76
2023/01/15 14:18:07;;;;;;;16.85;11.18;;;;;;;;;;4999744;28;20482;-76
2023/01/15 14:20:36;;;;;;;7.78;6.50;;;;;;;;;;5010956;28;20037;-76
2023/01/15 14:23:14;;;;;;;19.05;13.90;;;;;;;;;;5001202;28;20022;-74
2023/01/15 14:25:54;;;;;;;14.35;10.57;;;;;;;;;;5010766;28;20517;-76
2023/01/15 14:28:23;;;;;;;21.35;15.75;;;;;;;;;;4994689;28;20026;-75
2023/01/15 14:31:22;;;;;;;7.72;5.90;;;;;;;;;;5007373;28;20113;-75
2023/01/15 14:33:48;;;;;;;10.20;7.65;;;;;;;;;;4972269;28;20474;-76
2023/01/15 14:36:24;;;;;;;9.43;6.90;;;;;;;;;;5011412;28;20441;-75
2023/01/15 14:38:54;;;;;;;7.30;4.95;;;;;;;;;;5012456;28;20104;-76
2023/01/15 14:41:31;;;;;;;5.68;4.63;;;;;;;;;;4996579;28;20456;-76
2023/01/15 14:43:59;;;;;;;11.88;8.32;;;;;;;;;;5011637;28;20411;-76
2023/01/15 14:46:26;;;;;;;28.20;15.77;;;;;;;;;;4992056;28;20021;-75
2023/01/15 14:48:52;;;;;;;14.75;10.80;;;;;;;;;;5001525;28;20022;-76
2023/01/15 14:51:23;;;;;;;29.85;19.20;;;;;;;;;;4993281;28;20087;-74
2023/01/15 14:53:51;;;;;;;38.28;21.35;;;;;;;;;;5015448;28;20038;-75
2023/01/15 14:56:20;;;;;;;57.20;35.35;;;;;;;;;;5012787;28;20029;-75
2023/01/15 14:58:52;;;;;;;32.08;23.15;;;;;;;;;;5012795;28;20544;-75
2023/01/15 15:01:18;;;;;;;54.40;37.60;;;;;;;;;;4990832;28;20033;-75
2023/01/15 15:03:49;;;;;;;31.23;23.83;;;;;;;;;;4999092;28;20060;-75
2023/01/15 15:06:16;;;;;;;20.08;15.23;;;;;;;;;;5008815;28;20034;-76
2023/01/15 15:08:43;;;;;;;15.25;11.65;;;;;;;;;;5009146;28;20029;-75
2023/01/15 15:12:17;;;;;;;12.32;11.05;;;;;;;;;;5016157;28;20054;-76
2023/01/15 15:14:04;;;;;;;10.18;7.30;;;;;;;;;;5012189;28;20096;-76
2023/01/15 15:16:31;;;;;;;8.75;7.95;;;;;;;;;;5013104;28;20034;-76
2023/01/15 15:19:00;;;;;;;6.15;5.55;;;;;;;;;;5011356;28;20030;-77
2023/01/15 15:21:32;;;;;;;7.07;6.45;;;;;;;;;;5010602;28;20501;-76
2023/01/15 15:24:17;;;;;;;7.07;6.35;;;;;;;;;;5013165;28;20370;-76
2023/01/15 15:26:44;;;;;;;6.68;6.03;;;;;;;;;;5000127;28;20036;-75
2023/01/15 15:29:14;;;;;;;16.05;14.27;;;;;;;;;;5008649;28;20025;-77
2023/01/15 15:31:42;;;;;;;6.38;5.13;;;;;;;;;;5001088;28;20030;-76
2023/01/15 15:34:15;;;;;;;9.93;7.80;;;;;;;;;;5013279;28;20038;-76
2023/01/15 15:36:45;;;;;;;8.10;6.60;;;;;;;;;;5008363;28;20033;-76
2023/01/15 15:39:16;;;;;;;10.73;7.28;;;;;;;;;;5012563;28;20097;-75
2023/01/15 15:50:07;;;;;;;12.00;7.85;;;;;;;;;;5011858;28;20064;-76
2023/01/15 15:52:34;;;;;;;11.57;9.32;;;;;;;;;;4996987;28;20037;-76
2023/01/15 15:55:04;;;;;;;22.10;17.63;;;;;;;;;;4985012;28;20033;-76
2023/01/15 15:57:31;;;;;;;26.48;18.38;;;;;;;;;;5012852;28;20071;-77
2023/01/15 15:59:59;;;;;;;43.60;30.00;;;;;;;;;;4991567;28;20037;-76